sensor_id;sensor_type;location;lat;lon;timestamp;P1;durP1;ratioP1;P2;durP2;ratioP2
69381;SDS011;56560;50.692;12.844;2023-07-13T00:01:46;10.25;;;4.28;;
69381;SDS011;56560;50.692;12.844;2023-07-13T00:04:14;9.88;;;4.60;;
69381;SDS011;56560;50.692;12.844;2023-07-13T00:06:45;10.38;;;4.20;;
69381;SDS011;56560;50.692;12.844;2023-07-13T00:09:12;10.57;;;3.92;;
69381;SDS011;56560;50.692;12.844;2023-07-13T00:11:39;10.25;;;4.30;;
69381;SDS011;56560;50.692;12.844;2023-07-13T00:14:06;10.95;;;4.80;;
69381;SDS011;56560;50.692;12.844;2023-07-13T00:16:33;10.05;;;4.85;;
69381;SDS011;56560;50.692;12.844;2023-07-13T00:19:00;9.32;;;4.80;;
69381;SDS011;56560;50.692;12.844;2023-07-13T00:21:26;9.97;;;4.70;;
69381;SDS011;56560;50.692;12.844;2023-07-13T00:23:52;11.60;;;4.88;;
69381;SDS011;56560;50.692;12.844;2023-07-13T00:26:18;9.87;;;4.27;;
69381;SDS011;56560;50.692;12.844;2023-07-13T00:28:44;11.68;;;4.88;;
69381;SDS011;56560;50.692;12.844;2023-07-13T00:31:10;11.37;;;5.20;;
69381;SDS011;56560;50.692;12.844;2023-07-13T00:33:36;11.77;;;5.22;;
69381;SDS011;56560;50.692;12.844;2023-07-13T00:36:02;12.00;;;4.90;;
69381;SDS011;56560;50.692;12.844;2023-07-13T00:38:28;11.27;;;5.40;;
69381;SDS011;56560;50.692;12.844;2023-07-13T00:40:54;10.48;;;5.30;;
69381;SDS011;56560;50.692;12.844;2023-07-13T00:43:21;10.75;;;5.15;;
69381;SDS011;56560;50.692;12.844;2023-07-13T00:48:14;11.70;;;5.57;;
69381;SDS011;56560;50.692;12.844;2023-07-13T00:50:44;11.88;;;5.38;;
69381;SDS011;56560;50.692;12.844;2023-07-13T00:53:15;11.25;;;5.20;;
69381;SDS011;56560;50.692;12.844;2023-07-13T00:55:41;9.88;;;4.88;;
69381;SDS011;56560;50.692;12.844;2023-07-13T00:58:07;9.73;;;4.68;;
69381;SDS011;56560;50.692;12.844;2023-07-13T01:00:34;10.15;;;4.78;;
69381;SDS011;56560;50.692;12.844;2023-07-13T01:03:02;10.57;;;5.20;;
69381;SDS011;56560;50.692;12.844;2023-07-13T01:05:29;10.47;;;5.10;;
69381;SDS011;56560;50.692;12.844;2023-07-13T01:07:57;11.43;;;5.03;;
69381;SDS011;56560;50.692;12.844;2023-07-13T01:10:24;11.68;;;5.28;;
69381;SDS011;56560;50.692;12.844;2023-07-13T01:12:50;9.95;;;5.22;;
69381;SDS011;56560;50.692;12.844;2023-07-13T01:15:33;13.13;;;5.78;;
69381;SDS011;56560;50.692;12.844;2023-07-13T01:18:03;11.60;;;5.20;;
69381;SDS011;56560;50.692;12.844;2023-07-13T01:20:30;10.48;;;5.50;;
69381;SDS011;56560;50.692;12.844;2023-07-13T01:22:56;12.77;;;5.63;;
69381;SDS011;56560;50.692;12.844;2023-07-13T01:25:22;11.73;;;5.50;;
69381;SDS011;56560;50.692;12.844;2023-07-13T01:27:47;12.02;;;5.60;;
69381;SDS011;56560;50.692;12.844;2023-07-13T01:30:13;11.50;;;4.90;;
69381;SDS011;56560;50.692;12.844;2023-07-13T01:32:39;11.88;;;5.35;;
69381;SDS011;56560;50.692;12.844;2023-07-13T01:35:07;10.07;;;5.18;;
69381;SDS011;56560;50.692;12.844;2023-07-13T01:37:33;10.95;;;5.50;;
69381;SDS011;56560;50.692;12.844;2023-07-13T01:40:01;11.98;;;5.78;;
69381;SDS011;56560;50.692;12.844;2023-07-13T01:42:28;10.52;;;5.30;;
69381;SDS011;56560;50.692;12.844;2023-07-13T01:44:54;12.43;;;5.40;;
69381;SDS011;56560;50.692;12.844;2023-07-13T01:47:19;11.38;;;5.50;;
69381;SDS011;56560;50.692;12.844;2023-07-13T01:49:45;11.43;;;5.27;;
69381;SDS011;56560;50.692;12.844;2023-07-13T01:52:12;9.18;;;4.60;;
69381;SDS011;56560;50.692;12.844;2023-07-13T01:54:39;11.15;;;5.45;;
69381;SDS011;56560;50.692;12.844;2023-07-13T01:57:05;10.63;;;5.30;;
69381;SDS011;56560;50.692;12.844;2023-07-13T01:59:30;11.50;;;5.57;;
69381;SDS011;56560;50.692;12.844;2023-07-13T02:01:58;11.07;;;5.25;;
69381;SDS011;56560;50.692;12.844;2023-07-13T02:04:23;11.10;;;5.60;;
69381;SDS011;56560;50.692;12.844;2023-07-13T02:06:49;13.97;;;6.00;;
69381;SDS011;56560;50.692;12.844;2023-07-13T02:09:15;9.43;;;5.15;;
69381;SDS011;56560;50.692;12.844;2023-07-13T02:11:40;11.43;;;5.50;;
69381;SDS011;56560;50.692;12.844;2023-07-13T02:14:06;10.87;;;5.60;;
69381;SDS011;56560;50.692;12.844;2023-07-13T02:16:31;10.15;;;5.22;;
69381;SDS011;56560;50.692;12.844;2023-07-13T02:18:57;11.83;;;5.70;;
69381;SDS011;56560;50.692;12.844;2023-07-13T02:21:23;12.25;;;6.07;;
69381;SDS011;56560;50.692;12.844;2023-07-13T02:23:49;10.00;;;5.57;;
69381;SDS011;56560;50.692;12.844;2023-07-13T02:26:15;10.65;;;5.57;;
69381;SDS011;56560;50.692;12.844;2023-07-13T02:28:41;11.75;;;5.97;;
69381;SDS011;56560;50.692;12.844;2023-07-13T02:31:07;12.93;;;6.37;;
69381;SDS011;56560;50.692;12.844;2023-07-13T02:33:35;12.70;;;5.68;;
69381;SDS011;56560;50.692;12.844;2023-07-13T02:36:01;12.13;;;6.25;;
69381;SDS011;56560;50.692;12.844;2023-07-13T02:38:27;11.30;;;6.00;;
69381;SDS011;56560;50.692;12.844;2023-07-13T02:40:52;10.88;;;5.60;;
69381;SDS011;56560;50.692;12.844;2023-07-13T02:43:18;12.10;;;5.73;;
69381;SDS011;56560;50.692;12.844;2023-07-13T02:45:44;11.23;;;5.90;;
69381;SDS011;56560;50.692;12.844;2023-07-13T02:48:10;11.67;;;5.83;;
69381;SDS011;56560;50.692;12.844;2023-07-13T02:50:38;11.38;;;5.70;;
69381;SDS011;56560;50.692;12.844;2023-07-13T02:53:04;12.88;;;6.00;;
69381;SDS011;56560;50.692;12.844;2023-07-13T02:55:29;11.57;;;6.10;;
69381;SDS011;56560;50.692;12.844;2023-07-13T02:57:55;12.13;;;6.25;;
69381;SDS011;56560;50.692;12.844;2023-07-13T03:00:22;11.00;;;6.33;;
69381;SDS011;56560;50.692;12.844;2023-07-13T03:02:48;12.82;;;6.20;;
69381;SDS011;56560;50.692;12.844;2023-07-13T03:05:13;13.25;;;6.47;;
69381;SDS011;56560;50.692;12.844;2023-07-13T03:07:41;13.15;;;6.70;;
69381;SDS011;56560;50.692;12.844;2023-07-13T03:10:07;14.70;;;6.97;;
69381;SDS011;56560;50.692;12.844;2023-07-13T03:12:34;17.35;;;6.50;;
69381;SDS011;56560;50.692;12.844;2023-07-13T03:14:59;13.07;;;6.70;;
69381;SDS011;56560;50.692;12.844;2023-07-13T03:17:25;14.82;;;6.80;;
69381;SDS011;56560;50.692;12.844;2023-07-13T03:19:50;13.00;;;6.80;;
69381;SDS011;56560;50.692;12.844;2023-07-13T03:22:18;12.63;;;6.40;;
69381;SDS011;56560;50.692;12.844;2023-07-13T03:24:44;11.65;;;6.70;;
69381;SDS011;56560;50.692;12.844;2023-07-13T03:27:10;14.23;;;6.77;;
69381;SDS011;56560;50.692;12.844;2023-07-13T03:29:36;15.60;;;6.60;;
69381;SDS011;56560;50.692;12.844;2023-07-13T03:32:02;12.50;;;6.50;;
69381;SDS011;56560;50.692;12.844;2023-07-13T03:34:29;15.55;;;6.75;;
69381;SDS011;56560;50.692;12.844;2023-07-13T03:36:55;14.25;;;6.72;;
69381;SDS011;56560;50.692;12.844;2023-07-13T03:39:21;12.77;;;7.20;;
69381;SDS011;56560;50.692;12.844;2023-07-13T03:41:47;11.88;;;6.43;;
69381;SDS011;56560;50.692;12.844;2023-07-13T03:44:13;13.07;;;6.60;;
69381;SDS011;56560;50.692;12.844;2023-07-13T03:46:41;11.55;;;6.30;;
69381;SDS011;56560;50.692;12.844;2023-07-13T03:49:06;12.07;;;5.83;;
69381;SDS011;56560;50.692;12.844;2023-07-13T03:51:33;12.10;;;6.20;;
69381;SDS011;56560;50.692;12.844;2023-07-13T03:53:58;12.97;;;5.97;;
69381;SDS011;56560;50.692;12.844;2023-07-13T03:56:24;13.20;;;6.28;;
69381;SDS011;56560;50.692;12.844;2023-07-13T03:58:52;13.57;;;6.90;;
69381;SDS011;56560;50.692;12.844;2023-07-13T04:01:18;13.40;;;6.73;;
69381;SDS011;56560;50.692;12.844;2023-07-13T04:03:46;14.98;;;6.88;;
69381;SDS011;56560;50.692;12.844;2023-07-13T04:06:16;12.27;;;6.47;;
69381;SDS011;56560;50.692;12.844;2023-07-13T04:09:08;12.57;;;6.23;;
69381;SDS011;56560;50.692;12.844;2023-07-13T04:11:33;11.30;;;6.35;;
69381;SDS011;56560;50.692;12.844;2023-07-13T04:14:01;11.80;;;6.07;;
69381;SDS011;56560;50.692;12.844;2023-07-13T04:16:27;12.45;;;6.38;;
69381;SDS011;56560;50.692;12.844;2023-07-13T04:18:53;11.82;;;6.18;;
69381;SDS011;56560;50.692;12.844;2023-07-13T04:21:24;12.53;;;6.67;;
69381;SDS011;56560;50.692;12.844;2023-07-13T04:23:50;12.73;;;6.13;;
69381;SDS011;56560;50.692;12.844;2023-07-13T04:26:16;10.27;;;5.97;;
69381;SDS011;56560;50.692;12.844;2023-07-13T04:28:41;12.87;;;6.17;;
69381;SDS011;56560;50.692;12.844;2023-07-13T04:31:07;12.73;;;6.50;;
69381;SDS011;56560;50.692;12.844;2023-07-13T04:33:32;11.60;;;6.23;;
69381;SDS011;56560;50.692;12.844;2023-07-13T04:35:59;12.32;;;6.50;;
69381;SDS011;56560;50.692;12.844;2023-07-13T04:38:27;11.52;;;6.15;;
69381;SDS011;56560;50.692;12.844;2023-07-13T04:40:55;11.32;;;6.45;;
69381;SDS011;56560;50.692;12.844;2023-07-13T04:43:23;12.80;;;6.72;;
69381;SDS011;56560;50.692;12.844;2023-07-13T04:45:50;12.13;;;6.30;;
69381;SDS011;56560;50.692;12.844;2023-07-13T04:48:16;10.98;;;6.07;;
69381;SDS011;56560;50.692;12.844;2023-07-13T04:50:41;11.97;;;6.20;;
69381;SDS011;56560;50.692;12.844;2023-07-13T04:53:08;10.52;;;5.68;;
69381;SDS011;56560;50.692;12.844;2023-07-13T04:55:35;11.60;;;5.68;;
69381;SDS011;56560;50.692;12.844;2023-07-13T04:58:01;11.38;;;5.80;;
69381;SDS011;56560;50.692;12.844;2023-07-13T05:00:27;11.45;;;6.05;;
69381;SDS011;56560;50.692;12.844;2023-07-13T05:02:58;10.88;;;5.80;;
69381;SDS011;56560;50.692;12.844;2023-07-13T05:05:24;12.82;;;6.57;;
69381;SDS011;56560;50.692;12.844;2023-07-13T05:07:51;12.15;;;6.50;;
69381;SDS011;56560;50.692;12.844;2023-07-13T05:10:18;12.38;;;6.50;;
69381;SDS011;56560;50.692;12.844;2023-07-13T05:12:44;12.70;;;7.00;;
69381;SDS011;56560;50.692;12.844;2023-07-13T05:15:10;12.57;;;6.53;;
69381;SDS011;56560;50.692;12.844;2023-07-13T05:17:36;12.57;;;6.35;;
69381;SDS011;56560;50.692;12.844;2023-07-13T05:20:04;11.18;;;5.72;;
69381;SDS011;56560;50.692;12.844;2023-07-13T05:22:30;10.75;;;5.88;;
69381;SDS011;56560;50.692;12.844;2023-07-13T05:24:56;10.68;;;5.75;;
69381;SDS011;56560;50.692;12.844;2023-07-13T05:27:22;10.67;;;5.47;;
69381;SDS011;56560;50.692;12.844;2023-07-13T05:29:48;11.95;;;6.03;;
69381;SDS011;56560;50.692;12.844;2023-07-13T05:32:14;11.13;;;5.43;;
69381;SDS011;56560;50.692;12.844;2023-07-13T05:34:39;11.77;;;5.70;;
69381;SDS011;56560;50.692;12.844;2023-07-13T05:37:05;11.75;;;5.63;;
69381;SDS011;56560;50.692;12.844;2023-07-13T05:39:31;12.60;;;5.90;;
69381;SDS011;56560;50.692;12.844;2023-07-13T05:41:56;9.80;;;5.33;;
69381;SDS011;56560;50.692;12.844;2023-07-13T05:44:22;10.68;;;5.53;;
69381;SDS011;56560;50.692;12.844;2023-07-13T05:46:48;10.90;;;5.60;;
69381;SDS011;56560;50.692;12.844;2023-07-13T05:49:13;10.55;;;5.25;;
69381;SDS011;56560;50.692;12.844;2023-07-13T05:51:39;11.43;;;5.10;;
69381;SDS011;56560;50.692;12.844;2023-07-13T05:54:05;11.18;;;5.45;;
69381;SDS011;56560;50.692;12.844;2023-07-13T05:56:30;10.60;;;5.20;;
69381;SDS011;56560;50.692;12.844;2023-07-13T05:58:56;8.80;;;4.95;;
69381;SDS011;56560;50.692;12.844;2023-07-13T06:01:22;9.33;;;4.93;;
69381;SDS011;56560;50.692;12.844;2023-07-13T06:03:48;10.70;;;4.85;;
69381;SDS011;56560;50.692;12.844;2023-07-13T06:06:15;10.20;;;5.20;;
69381;SDS011;56560;50.692;12.844;2023-07-13T06:08:41;11.10;;;4.97;;
69381;SDS011;56560;50.692;12.844;2023-07-13T06:11:09;10.07;;;5.05;;
69381;SDS011;56560;50.692;12.844;2023-07-13T06:13:39;9.50;;;5.10;;
69381;SDS011;56560;50.692;12.844;2023-07-13T06:16:05;9.57;;;4.83;;
69381;SDS011;56560;50.692;12.844;2023-07-13T06:18:32;9.90;;;4.70;;
69381;SDS011;56560;50.692;12.844;2023-07-13T06:20:58;9.38;;;4.70;;
69381;SDS011;56560;50.692;12.844;2023-07-13T06:23:24;12.38;;;5.05;;
69381;SDS011;56560;50.692;12.844;2023-07-13T06:25:51;8.53;;;4.20;;
69381;SDS011;56560;50.692;12.844;2023-07-13T06:28:17;11.35;;;4.45;;
69381;SDS011;56560;50.692;12.844;2023-07-13T06:30:42;8.55;;;3.90;;
69381;SDS011;56560;50.692;12.844;2023-07-13T06:33:08;8.85;;;3.85;;
69381;SDS011;56560;50.692;12.844;2023-07-13T06:35:33;7.97;;;3.83;;
69381;SDS011;56560;50.692;12.844;2023-07-13T06:37:59;9.07;;;3.85;;
69381;SDS011;56560;50.692;12.844;2023-07-13T06:40:25;10.38;;;4.30;;
69381;SDS011;56560;50.692;12.844;2023-07-13T06:42:53;9.30;;;4.30;;
69381;SDS011;56560;50.692;12.844;2023-07-13T06:45:18;10.73;;;4.00;;
69381;SDS011;56560;50.692;12.844;2023-07-13T06:47:44;9.73;;;4.10;;
69381;SDS011;56560;50.692;12.844;2023-07-13T06:50:10;12.57;;;4.03;;
69381;SDS011;56560;50.692;12.844;2023-07-13T06:52:35;8.93;;;4.00;;
69381;SDS011;56560;50.692;12.844;2023-07-13T06:55:01;8.70;;;3.90;;
69381;SDS011;56560;50.692;12.844;2023-07-13T06:57:28;10.77;;;4.00;;
69381;SDS011;56560;50.692;12.844;2023-07-13T06:59:53;9.10;;;4.10;;
69381;SDS011;56560;50.692;12.844;2023-07-13T07:02:19;11.07;;;3.97;;
69381;SDS011;56560;50.692;12.844;2023-07-13T07:04:44;8.80;;;3.70;;
69381;SDS011;56560;50.692;12.844;2023-07-13T07:07:10;9.53;;;3.73;;
69381;SDS011;56560;50.692;12.844;2023-07-13T07:09:36;11.07;;;4.00;;
69381;SDS011;56560;50.692;12.844;2023-07-13T07:12:02;9.82;;;3.65;;
69381;SDS011;56560;50.692;12.844;2023-07-13T07:14:28;8.38;;;3.70;;
69381;SDS011;56560;50.692;12.844;2023-07-13T07:16:54;8.17;;;3.67;;
69381;SDS011;56560;50.692;12.844;2023-07-13T07:19:19;8.98;;;4.10;;
69381;SDS011;56560;50.692;12.844;2023-07-13T07:21:45;10.43;;;4.00;;
69381;SDS011;56560;50.692;12.844;2023-07-13T07:24:11;7.75;;;3.70;;
69381;SDS011;56560;50.692;12.844;2023-07-13T07:26:37;10.60;;;3.80;;
69381;SDS011;56560;50.692;12.844;2023-07-13T07:29:02;9.20;;;3.80;;
69381;SDS011;56560;50.692;12.844;2023-07-13T07:31:28;8.60;;;3.50;;
69381;SDS011;56560;50.692;12.844;2023-07-13T07:33:54;12.02;;;3.40;;
69381;SDS011;56560;50.692;12.844;2023-07-13T07:36:19;8.40;;;3.40;;
69381;SDS011;56560;50.692;12.844;2023-07-13T07:38:45;6.73;;;3.40;;
69381;SDS011;56560;50.692;12.844;2023-07-13T07:41:11;8.02;;;3.45;;
69381;SDS011;56560;50.692;12.844;2023-07-13T07:43:38;7.95;;;3.03;;
69381;SDS011;56560;50.692;12.844;2023-07-13T07:46:04;9.87;;;3.03;;
69381;SDS011;56560;50.692;12.844;2023-07-13T07:48:29;8.57;;;2.90;;
69381;SDS011;56560;50.692;12.844;2023-07-13T07:50:55;7.97;;;2.90;;
69381;SDS011;56560;50.692;12.844;2023-07-13T07:53:21;9.20;;;3.10;;
69381;SDS011;56560;50.692;12.844;2023-07-13T07:55:47;7.27;;;3.03;;
69381;SDS011;56560;50.692;12.844;2023-07-13T07:58:13;7.57;;;3.10;;
69381;SDS011;56560;50.692;12.844;2023-07-13T08:00:39;7.97;;;3.28;;
69381;SDS011;56560;50.692;12.844;2023-07-13T08:03:05;7.93;;;3.20;;
69381;SDS011;56560;50.692;12.844;2023-07-13T08:05:31;10.88;;;3.42;;
69381;SDS011;56560;50.692;12.844;2023-07-13T08:07:56;7.67;;;3.30;;
69381;SDS011;56560;50.692;12.844;2023-07-13T08:10:22;10.27;;;3.58;;
69381;SDS011;56560;50.692;12.844;2023-07-13T08:12:48;10.30;;;3.67;;
69381;SDS011;56560;50.692;12.844;2023-07-13T08:15:14;8.82;;;3.47;;
69381;SDS011;56560;50.692;12.844;2023-07-13T08:17:41;7.80;;;3.60;;
69381;SDS011;56560;50.692;12.844;2023-07-13T08:20:07;8.85;;;3.75;;
69381;SDS011;56560;50.692;12.844;2023-07-13T08:22:36;8.70;;;3.75;;
69381;SDS011;56560;50.692;12.844;2023-07-13T08:25:02;10.73;;;4.10;;
69381;SDS011;56560;50.692;12.844;2023-07-13T08:27:28;13.23;;;4.05;;
69381;SDS011;56560;50.692;12.844;2023-07-13T08:29:54;10.70;;;4.00;;
69381;SDS011;56560;50.692;12.844;2023-07-13T08:32:20;10.25;;;3.83;;
69381;SDS011;56560;50.692;12.844;2023-07-13T08:34:47;11.50;;;3.88;;
69381;SDS011;56560;50.692;12.844;2023-07-13T08:37:14;9.10;;;3.85;;
69381;SDS011;56560;50.692;12.844;2023-07-13T08:39:40;8.27;;;3.70;;
69381;SDS011;56560;50.692;12.844;2023-07-13T08:47:11;8.77;;;3.80;;
69381;SDS011;56560;50.692;12.844;2023-07-13T08:49:40;10.23;;;3.90;;
69381;SDS011;56560;50.692;12.844;2023-07-13T08:52:16;9.77;;;3.80;;
69381;SDS011;56560;50.692;12.844;2023-07-13T08:54:58;8.07;;;3.60;;
69381;SDS011;56560;50.692;12.844;2023-07-13T08:57:31;9.05;;;3.60;;
69381;SDS011;56560;50.692;12.844;2023-07-13T08:59:58;8.48;;;3.58;;
69381;SDS011;56560;50.692;12.844;2023-07-13T09:05:18;8.82;;;3.60;;
69381;SDS011;56560;50.692;12.844;2023-07-13T09:16:26;11.35;;;4.20;;
69381;SDS011;56560;50.692;12.844;2023-07-13T09:18:52;8.77;;;3.40;;
69381;SDS011;56560;50.692;12.844;2023-07-13T09:21:23;9.68;;;3.85;;
69381;SDS011;56560;50.692;12.844;2023-07-13T09:23:56;9.25;;;3.60;;
69381;SDS011;56560;50.692;12.844;2023-07-13T09:26:44;9.13;;;4.03;;
69381;SDS011;56560;50.692;12.844;2023-07-13T09:29:24;7.90;;;3.50;;
69381;SDS011;56560;50.692;12.844;2023-07-13T09:31:54;8.52;;;3.30;;
69381;SDS011;56560;50.692;12.844;2023-07-13T09:34:23;8.63;;;3.55;;
69381;SDS011;56560;50.692;12.844;2023-07-13T09:36:50;10.00;;;3.55;;
69381;SDS011;56560;50.692;12.844;2023-07-13T09:44:30;7.60;;;2.95;;
69381;SDS011;56560;50.692;12.844;2023-07-13T09:46:59;7.88;;;3.20;;
69381;SDS011;56560;50.692;12.844;2023-07-13T09:49:29;14.52;;;3.47;;
69381;SDS011;56560;50.692;12.844;2023-07-13T09:52:09;7.53;;;3.10;;
69381;SDS011;56560;50.692;12.844;2023-07-13T09:54:37;11.95;;;3.30;;
69381;SDS011;56560;50.692;12.844;2023-07-13T09:57:08;8.43;;;3.30;;
69381;SDS011;56560;50.692;12.844;2023-07-13T09:59:46;9.07;;;3.50;;
69381;SDS011;56560;50.692;12.844;2023-07-13T10:02:32;7.88;;;3.20;;
69381;SDS011;56560;50.692;12.844;2023-07-13T10:05:03;9.88;;;3.40;;
69381;SDS011;56560;50.692;12.844;2023-07-13T10:07:40;9.48;;;3.72;;
69381;SDS011;56560;50.692;12.844;2023-07-13T10:10:15;8.50;;;3.60;;
69381;SDS011;56560;50.692;12.844;2023-07-13T10:12:45;10.70;;;3.47;;
69381;SDS011;56560;50.692;12.844;2023-07-13T10:15:15;9.65;;;3.40;;
69381;SDS011;56560;50.692;12.844;2023-07-13T10:17:43;9.02;;;3.30;;
69381;SDS011;56560;50.692;12.844;2023-07-13T10:20:10;11.35;;;3.72;;
69381;SDS011;56560;50.692;12.844;2023-07-13T10:25:26;8.90;;;3.57;;
69381;SDS011;56560;50.692;12.844;2023-07-13T10:28:00;10.25;;;3.60;;
69381;SDS011;56560;50.692;12.844;2023-07-13T10:30:32;7.57;;;3.47;;
69381;SDS011;56560;50.692;12.844;2023-07-13T10:33:03;8.80;;;3.33;;
69381;SDS011;56560;50.692;12.844;2023-07-13T10:35:36;9.90;;;3.45;;
69381;SDS011;56560;50.692;12.844;2023-07-13T10:38:06;9.43;;;3.60;;
69381;SDS011;56560;50.692;12.844;2023-07-13T10:40:37;12.85;;;3.45;;
69381;SDS011;56560;50.692;12.844;2023-07-13T10:43:28;7.30;;;3.40;;
69381;SDS011;56560;50.692;12.844;2023-07-13T10:45:59;7.53;;;3.30;;
69381;SDS011;56560;50.692;12.844;2023-07-13T10:48:27;8.65;;;3.35;;
69381;SDS011;56560;50.692;12.844;2023-07-13T10:50:54;7.07;;;3.00;;
69381;SDS011;56560;50.692;12.844;2023-07-13T10:53:29;8.13;;;2.90;;
69381;SDS011;56560;50.692;12.844;2023-07-13T10:56:15;7.60;;;2.90;;
69381;SDS011;56560;50.692;12.844;2023-07-13T10:58:50;8.30;;;3.00;;
69381;SDS011;56560;50.692;12.844;2023-07-13T11:04:21;8.93;;;3.10;;
69381;SDS011;56560;50.692;12.844;2023-07-13T11:06:50;8.25;;;3.15;;
69381;SDS011;56560;50.692;12.844;2023-07-13T11:09:37;8.95;;;2.80;;
69381;SDS011;56560;50.692;12.844;2023-07-13T11:20:23;9.25;;;3.00;;
69381;SDS011;56560;50.692;12.844;2023-07-13T11:25:38;6.53;;;2.90;;
69381;SDS011;56560;50.692;12.844;2023-07-13T11:30:37;6.78;;;2.80;;
69381;SDS011;56560;50.692;12.844;2023-07-13T11:35:53;6.72;;;3.00;;
69381;SDS011;56560;50.692;12.844;2023-07-13T11:41:21;7.47;;;2.80;;
69381;SDS011;56560;50.692;12.844;2023-07-13T11:43:50;7.47;;;2.90;;
69381;SDS011;56560;50.692;12.844;2023-07-13T11:46:20;5.72;;;2.60;;
69381;SDS011;56560;50.692;12.844;2023-07-13T11:48:52;5.97;;;2.80;;
69381;SDS011;56560;50.692;12.844;2023-07-13T11:51:22;6.60;;;2.70;;
69381;SDS011;56560;50.692;12.844;2023-07-13T11:53:54;6.17;;;2.60;;
69381;SDS011;56560;50.692;12.844;2023-07-13T11:56:22;6.90;;;2.80;;
69381;SDS011;56560;50.692;12.844;2023-07-13T11:58:49;6.35;;;2.80;;
69381;SDS011;56560;50.692;12.844;2023-07-13T12:01:22;7.47;;;2.60;;
69381;SDS011;56560;50.692;12.844;2023-07-13T12:03:57;5.95;;;2.78;;
69381;SDS011;56560;50.692;12.844;2023-07-13T12:06:27;6.93;;;2.70;;
69381;SDS011;56560;50.692;12.844;2023-07-13T12:08:59;5.82;;;2.60;;
69381;SDS011;56560;50.692;12.844;2023-07-13T12:11:28;6.93;;;2.90;;
69381;SDS011;56560;50.692;12.844;2023-07-13T12:13:54;6.45;;;2.80;;
69381;SDS011;56560;50.692;12.844;2023-07-13T12:16:25;7.17;;;3.00;;
69381;SDS011;56560;50.692;12.844;2023-07-13T12:18:54;6.68;;;2.70;;
69381;SDS011;56560;50.692;12.844;2023-07-13T12:21:22;6.93;;;2.92;;
69381;SDS011;56560;50.692;12.844;2023-07-13T12:23:54;7.95;;;2.85;;
69381;SDS011;56560;50.692;12.844;2023-07-13T12:26:20;7.93;;;2.90;;
69381;SDS011;56560;50.692;12.844;2023-07-13T12:31:33;6.50;;;3.20;;
69381;SDS011;56560;50.692;12.844;2023-07-13T12:34:02;8.40;;;2.90;;
69381;SDS011;56560;50.692;12.844;2023-07-13T12:36:32;7.50;;;3.30;;
69381;SDS011;56560;50.692;12.844;2023-07-13T12:39:03;8.77;;;2.90;;
69381;SDS011;56560;50.692;12.844;2023-07-13T12:41:39;8.02;;;3.13;;
69381;SDS011;56560;50.692;12.844;2023-07-13T12:44:09;8.37;;;3.00;;
69381;SDS011;56560;50.692;12.844;2023-07-13T12:46:39;8.13;;;2.80;;
69381;SDS011;56560;50.692;12.844;2023-07-13T12:49:18;7.82;;;3.10;;
69381;SDS011;56560;50.692;12.844;2023-07-13T12:51:56;8.23;;;3.10;;
69381;SDS011;56560;50.692;12.844;2023-07-13T12:54:24;8.70;;;2.97;;
69381;SDS011;56560;50.692;12.844;2023-07-13T12:56:50;8.73;;;3.07;;
69381;SDS011;56560;50.692;12.844;2023-07-13T12:59:19;7.80;;;3.13;;
69381;SDS011;56560;50.692;12.844;2023-07-13T13:01:46;8.80;;;2.90;;
69381;SDS011;56560;50.692;12.844;2023-07-13T13:04:14;5.65;;;2.75;;
69381;SDS011;56560;50.692;12.844;2023-07-13T13:06:41;8.07;;;2.80;;
69381;SDS011;56560;50.692;12.844;2023-07-13T13:09:12;8.63;;;2.97;;
69381;SDS011;56560;50.692;12.844;2023-07-13T13:11:40;14.13;;;4.97;;
69381;SDS011;56560;50.692;12.844;2023-07-13T13:14:06;20.73;;;4.30;;
69381;SDS011;56560;50.692;12.844;2023-07-13T13:16:34;7.00;;;2.72;;
69381;SDS011;56560;50.692;12.844;2023-07-13T13:19:18;9.95;;;2.85;;
69381;SDS011;56560;50.692;12.844;2023-07-13T13:21:47;7.63;;;2.80;;
69381;SDS011;56560;50.692;12.844;2023-07-13T13:24:17;10.00;;;4.35;;
69381;SDS011;56560;50.692;12.844;2023-07-13T13:26:47;8.55;;;2.83;;
69381;SDS011;56560;50.692;12.844;2023-07-13T13:29:21;6.38;;;2.70;;
69381;SDS011;56560;50.692;12.844;2023-07-13T13:31:51;7.53;;;2.85;;
69381;SDS011;56560;50.692;12.844;2023-07-13T13:34:19;5.47;;;2.50;;
69381;SDS011;56560;50.692;12.844;2023-07-13T13:36:48;7.43;;;2.78;;
69381;SDS011;56560;50.692;12.844;2023-07-13T13:39:22;7.15;;;2.88;;
69381;SDS011;56560;50.692;12.844;2023-07-13T13:41:50;6.05;;;2.65;;
69381;SDS011;56560;50.692;12.844;2023-07-13T13:44:17;6.20;;;2.53;;
69381;SDS011;56560;50.692;12.844;2023-07-13T13:46:47;7.83;;;2.70;;
69381;SDS011;56560;50.692;12.844;2023-07-13T13:49:19;6.90;;;3.00;;
69381;SDS011;56560;50.692;12.844;2023-07-13T13:51:48;6.95;;;2.50;;
69381;SDS011;56560;50.692;12.844;2023-07-13T13:54:14;6.90;;;2.78;;
69381;SDS011;56560;50.692;12.844;2023-07-13T13:56:44;5.70;;;2.50;;
69381;SDS011;56560;50.692;12.844;2023-07-13T13:59:12;7.27;;;2.80;;
69381;SDS011;56560;50.692;12.844;2023-07-13T14:01:39;6.75;;;2.60;;
69381;SDS011;56560;50.692;12.844;2023-07-13T14:04:06;5.10;;;2.47;;
69381;SDS011;56560;50.692;12.844;2023-07-13T14:06:34;6.05;;;2.60;;
69381;SDS011;56560;50.692;12.844;2023-07-13T14:09:00;5.83;;;2.60;;
69381;SDS011;56560;50.692;12.844;2023-07-13T14:11:27;6.50;;;2.70;;
69381;SDS011;56560;50.692;12.844;2023-07-13T14:13:54;8.10;;;2.88;;
69381;SDS011;56560;50.692;12.844;2023-07-13T14:16:22;7.47;;;2.80;;
69381;SDS011;56560;50.692;12.844;2023-07-13T14:18:53;7.25;;;2.70;;
69381;SDS011;56560;50.692;12.844;2023-07-13T14:21:20;8.73;;;2.60;;
69381;SDS011;56560;50.692;12.844;2023-07-13T14:23:47;5.78;;;2.60;;
69381;SDS011;56560;50.692;12.844;2023-07-13T14:26:17;5.97;;;2.35;;
69381;SDS011;56560;50.692;12.844;2023-07-13T14:28:49;8.75;;;2.50;;
69381;SDS011;56560;50.692;12.844;2023-07-13T14:31:16;6.32;;;2.20;;
69381;SDS011;56560;50.692;12.844;2023-07-13T14:33:43;5.50;;;2.50;;
69381;SDS011;56560;50.692;12.844;2023-07-13T14:36:19;4.70;;;2.10;;
69381;SDS011;56560;50.692;12.844;2023-07-13T14:38:54;7.05;;;2.50;;
69381;SDS011;56560;50.692;12.844;2023-07-13T14:41:21;5.20;;;2.30;;
69381;SDS011;56560;50.692;12.844;2023-07-13T14:43:47;6.90;;;2.33;;
69381;SDS011;56560;50.692;12.844;2023-07-13T14:46:18;4.22;;;1.90;;
69381;SDS011;56560;50.692;12.844;2023-07-13T14:48:59;8.48;;;2.45;;
69381;SDS011;56560;50.692;12.844;2023-07-13T14:51:28;3.83;;;1.65;;
69381;SDS011;56560;50.692;12.844;2023-07-13T14:53:55;6.20;;;1.90;;
69381;SDS011;56560;50.692;12.844;2023-07-13T14:56:21;4.85;;;1.80;;
69381;SDS011;56560;50.692;12.844;2023-07-13T14:58:46;4.53;;;1.70;;
69381;SDS011;56560;50.692;12.844;2023-07-13T15:01:12;5.85;;;1.80;;
69381;SDS011;56560;50.692;12.844;2023-07-13T15:03:43;5.30;;;1.70;;
69381;SDS011;56560;50.692;12.844;2023-07-13T15:06:11;3.87;;;1.60;;
69381;SDS011;56560;50.692;12.844;2023-07-13T15:08:38;7.25;;;1.70;;
69381;SDS011;56560;50.692;12.844;2023-07-13T15:11:05;3.88;;;1.50;;
69381;SDS011;56560;50.692;12.844;2023-07-13T15:13:36;3.42;;;1.40;;
69381;SDS011;56560;50.692;12.844;2023-07-13T15:16:19;2.75;;;1.50;;
69381;SDS011;56560;50.692;12.844;2023-07-13T15:18:48;3.27;;;1.57;;
69381;SDS011;56560;50.692;12.844;2023-07-13T15:21:24;3.70;;;1.50;;
69381;SDS011;56560;50.692;12.844;2023-07-13T15:23:51;3.80;;;1.60;;
69381;SDS011;56560;50.692;12.844;2023-07-13T15:26:17;3.72;;;1.50;;